createdAt,value
2023-02-16T00:00:26.785Z,38.70
2023-02-16T00:02:54.619Z,42.50
2023-02-16T00:05:29.806Z,33.97
2023-02-16T00:07:58.027Z,38.00
2023-02-16T00:10:26.649Z,35.92
2023-02-16T00:13:12.735Z,37.28
2023-02-16T00:15:41.418Z,30.02
2023-02-16T00:18:18.054Z,30.38
2023-02-16T00:20:46.928Z,27.75
2023-02-16T00:23:14.705Z,25.95
2023-02-16T00:25:42.773Z,22.65
2023-02-16T00:28:20.284Z,30.80
2023-02-16T00:30:48.586Z,30.98
2023-02-16T00:33:17.284Z,31.30
2023-02-16T00:35:45.609Z,32.58
2023-02-16T00:38:14.082Z,20.52
2023-02-16T00:40:42.564Z,34.65
2023-02-16T00:43:40.697Z,34.55
2023-02-16T00:46:09.380Z,39.58
2023-02-16T00:48:37.778Z,47.75
2023-02-16T00:51:20.332Z,36.50
2023-02-16T00:53:53.137Z,44.60
2023-02-16T00:56:21.514Z,50.92
2023-02-16T00:58:51.107Z,33.00
2023-02-16T01:01:19.295Z,18.33
2023-02-16T01:03:48.794Z,47.35
2023-02-16T01:06:35.525Z,53.38
2023-02-16T01:09:36.341Z,42.45
2023-02-16T01:12:06.137Z,57.60
2023-02-16T01:14:36.957Z,62.03
2023-02-16T01:17:04.899Z,46.58
2023-02-16T01:19:32.637Z,45.45
2023-02-16T01:22:00.714Z,56.90
2023-02-16T01:24:29.323Z,33.13
2023-02-16T01:26:57.488Z,33.58
2023-02-16T01:29:25.571Z,45.60
2023-02-16T01:31:54.071Z,34.20
2023-02-16T01:34:22.284Z,43.75
2023-02-16T01:36:50.204Z,34.40
2023-02-16T01:39:19.533Z,34.72
2023-02-16T01:42:24.435Z,40.00
2023-02-16T01:44:53.901Z,22.60
2023-02-16T01:47:43.114Z,14.18
2023-02-16T01:50:28.370Z,44.05
2023-02-16T01:52:57.845Z,35.33
2023-02-16T01:55:37.595Z,20.58
2023-02-16T01:58:14.576Z,9.90
2023-02-16T02:00:57.121Z,40.72
2023-02-16T02:03:54.177Z,38.00
2023-02-16T02:06:24.454Z,32.60
2023-02-16T02:08:57.470Z,41.20
2023-02-16T02:11:47.584Z,22.15
2023-02-16T02:14:21.226Z,19.50
2023-02-16T02:17:00.463Z,43.92
2023-02-16T02:19:31.336Z,38.08
2023-02-16T02:22:46.137Z,40.05
2023-02-16T02:25:45.776Z,32.78
2023-02-16T02:28:31.844Z,50.83
2023-02-16T02:31:11.553Z,38.40
2023-02-16T02:34:18.860Z,57.08
2023-02-16T02:36:52.103Z,42.83
2023-02-16T02:39:47.034Z,48.15
2023-02-16T02:42:17.301Z,42.65
2023-02-16T02:44:58.166Z,70.10
2023-02-16T02:47:38.485Z,67.18
2023-02-16T02:50:35.974Z,60.38
2023-02-16T02:53:08.370Z,71.55
2023-02-16T02:55:56.242Z,74.90
2023-02-16T02:58:43.319Z,50.65
2023-02-16T03:01:12.737Z,70.78
2023-02-16T03:03:49.702Z,59.85
2023-02-16T03:06:26.954Z,70.32
2023-02-16T03:09:03.485Z,57.22
2023-02-16T03:11:49.793Z,71.43
2023-02-16T03:14:38.144Z,72.50
2023-02-16T03:17:35.422Z,74.78
2023-02-16T03:20:26.712Z,79.38
2023-02-16T03:23:13.267Z,60.97
2023-02-16T03:25:59.530Z,63.28
2023-02-16T03:28:47.928Z,70.13
2023-02-16T03:31:19.942Z,70.78
2023-02-16T03:33:48.527Z,73.72
2023-02-16T03:36:16.833Z,45.83
2023-02-16T03:38:45.066Z,62.00
2023-02-16T03:41:13.037Z,55.83
2023-02-16T03:43:40.867Z,59.15
2023-02-16T03:46:08.631Z,60.75
2023-02-16T03:48:36.587Z,59.22
2023-02-16T03:51:04.864Z,67.13
2023-02-16T03:53:32.796Z,63.45
2023-02-16T03:56:01.402Z,48.60
2023-02-16T03:58:31.058Z,51.40
2023-02-16T04:00:59.302Z,48.67
2023-02-16T04:03:27.626Z,58.00
2023-02-16T04:05:56.839Z,40.90
2023-02-16T04:08:24.553Z,42.58
2023-02-16T04:10:52.560Z,45.05
2023-02-16T04:13:20.543Z,40.70
2023-02-16T04:15:48.415Z,40.45
2023-02-16T04:18:16.489Z,43.00
2023-02-16T04:20:44.583Z,43.08
2023-02-16T04:23:13.024Z,52.88
2023-02-16T04:25:41.089Z,40.70
2023-02-16T04:28:09.048Z,38.97
2023-02-16T04:30:37.733Z,47.40
2023-02-16T04:33:05.679Z,33.28
2023-02-16T04:35:33.722Z,50.58
2023-02-16T04:38:02.019Z,50.75
2023-02-16T04:40:30.080Z,50.15
2023-02-16T04:42:58.175Z,44.60
2023-02-16T04:45:26.452Z,46.03
2023-02-16T04:47:54.608Z,46.28
2023-02-16T04:50:23.091Z,53.85
2023-02-16T04:52:51.071Z,48.70
2023-02-16T04:55:19.320Z,53.50
2023-02-16T04:57:47.171Z,49.60
2023-02-16T05:00:15.731Z,49.50
2023-02-16T05:02:43.693Z,47.47
2023-02-16T05:05:11.401Z,44.38
2023-02-16T05:07:39.439Z,47.00
2023-02-16T05:10:07.638Z,40.38
2023-02-16T05:12:53.782Z,41.15
2023-02-16T05:15:22.276Z,49.25
2023-02-16T05:17:50.163Z,37.97
2023-02-16T05:20:18.357Z,42.78
2023-02-16T05:22:46.763Z,27.20
2023-02-16T05:25:14.626Z,36.85
2023-02-16T05:27:42.617Z,38.53
2023-02-16T05:30:11.362Z,41.33
2023-02-16T05:32:39.489Z,28.92
2023-02-16T05:35:07.283Z,40.85
2023-02-16T05:37:35.235Z,40.65
2023-02-16T05:40:03.624Z,29.50
2023-02-16T05:42:31.909Z,36.28
2023-02-16T05:44:59.901Z,37.40
2023-02-16T05:47:28.246Z,31.90
2023-02-16T05:49:56.334Z,34.85
2023-02-16T05:52:24.219Z,35.15
2023-02-16T05:54:52.467Z,32.70
2023-02-16T05:57:21.059Z,23.85
2023-02-16T05:59:48.798Z,36.30
2023-02-16T06:02:17.168Z,31.63
2023-02-16T06:04:44.952Z,29.63
2023-02-16T06:07:14.837Z,28.95
2023-02-16T06:09:42.794Z,32.10
2023-02-16T06:12:10.528Z,27.05
2023-02-16T06:14:38.765Z,13.63
2023-02-16T06:17:06.482Z,35.50
2023-02-16T06:19:34.297Z,43.35
2023-02-16T06:22:02.142Z,40.38
2023-02-16T06:24:30.139Z,41.60
2023-02-16T06:26:58.285Z,35.83
2023-02-16T06:29:28.253Z,45.33
2023-02-16T06:31:56.660Z,38.97
2023-02-16T06:34:24.736Z,29.85
2023-02-16T06:36:52.448Z,37.83
2023-02-16T06:39:20.674Z,41.13
2023-02-16T06:41:49.075Z,34.42
2023-02-16T06:44:17.454Z,27.15
2023-02-16T06:46:46.830Z,33.10
2023-02-16T06:49:17.180Z,32.70
2023-02-16T06:51:45.309Z,38.83
2023-02-16T06:54:13.409Z,30.25
2023-02-16T06:56:41.333Z,38.53
2023-02-16T06:59:09.455Z,29.52
2023-02-16T07:01:37.529Z,25.55
2023-02-16T07:04:05.346Z,32.13
2023-02-16T07:06:33.414Z,39.65
2023-02-16T07:09:01.476Z,25.55
2023-02-16T07:11:29.709Z,32.30
2023-02-16T07:13:57.527Z,30.00
2023-02-16T07:16:25.934Z,32.47
2023-02-16T07:18:54.060Z,36.85
2023-02-16T07:21:22.334Z,34.65
2023-02-16T07:23:50.552Z,35.25
2023-02-16T07:26:18.269Z,38.47
2023-02-16T07:28:46.244Z,24.50
2023-02-16T07:31:15.540Z,27.60
2023-02-16T07:33:44.003Z,38.63
2023-02-16T07:36:14.686Z,25.40
2023-02-16T07:38:43.056Z,23.90
2023-02-16T07:41:11.475Z,36.00
2023-02-16T07:43:39.772Z,32.35
2023-02-16T07:46:07.966Z,34.03
2023-02-16T07:48:36.508Z,29.50
2023-02-16T07:51:04.755Z,26.20
2023-02-16T07:53:32.989Z,25.70
2023-02-16T07:56:01.115Z,36.78
2023-02-16T07:58:29.232Z,45.53
2023-02-16T08:01:08.478Z,32.78
2023-02-16T08:03:36.291Z,37.67
2023-02-16T08:06:04.787Z,35.35
2023-02-16T08:08:32.975Z,35.17
2023-02-16T08:11:01.088Z,28.27
2023-02-16T08:13:28.857Z,26.48
2023-02-16T08:15:56.663Z,32.45
2023-02-16T08:18:24.479Z,32.40
2023-02-16T08:21:03.742Z,32.90
2023-02-16T08:23:32.583Z,30.05
2023-02-16T08:26:00.649Z,27.23
2023-02-16T08:28:30.466Z,33.08
2023-02-16T08:30:58.610Z,36.72
2023-02-16T08:33:26.463Z,32.75
2023-02-16T08:35:54.293Z,30.55
2023-02-16T08:38:23.212Z,35.97
2023-02-16T08:40:51.518Z,30.15
2023-02-16T08:43:19.368Z,32.58
2023-02-16T08:45:48.330Z,33.70
2023-02-16T08:48:17.062Z,31.55
2023-02-16T08:50:54.086Z,38.55
2023-02-16T08:53:23.525Z,36.83
2023-02-16T08:55:55.987Z,39.95
2023-02-16T08:58:24.457Z,25.50
2023-02-16T09:00:52.617Z,37.67
2023-02-16T09:03:20.621Z,27.40
2023-02-16T09:05:53.320Z,43.10
2023-02-16T09:08:22.119Z,43.13
2023-02-16T09:10:50.093Z,39.15
2023-02-16T09:13:18.300Z,45.03
2023-02-16T09:15:46.197Z,46.60
2023-02-16T09:18:14.920Z,39.15
2023-02-16T09:20:46.428Z,44.80
2023-02-16T09:23:14.970Z,35.95
2023-02-16T09:25:43.262Z,46.22
2023-02-16T09:28:11.357Z,44.35
2023-02-16T09:30:39.999Z,46.25
2023-02-16T09:33:08.167Z,46.15
2023-02-16T09:35:40.116Z,38.72
2023-02-16T09:38:08.674Z,48.63
2023-02-16T09:40:38.127Z,43.55
2023-02-16T09:43:07.309Z,48.55
2023-02-16T09:45:42.210Z,43.83
2023-02-16T09:48:31.689Z,51.25
2023-02-16T09:51:00.325Z,41.83
2023-02-16T09:53:38.347Z,47.28
2023-02-16T09:56:14.996Z,34.85
2023-02-16T09:58:48.968Z,40.88
2023-02-16T10:01:24.127Z,50.53
2023-02-16T10:04:24.398Z,38.90
2023-02-16T10:07:17.511Z,41.30
2023-02-16T10:09:47.928Z,40.65
2023-02-16T10:12:26.990Z,37.53
2023-02-16T10:15:01.192Z,37.33
2023-02-16T10:17:41.134Z,37.40
2023-02-16T10:20:18.429Z,34.58
2023-02-16T10:22:47.047Z,40.22
2023-02-16T10:25:21.183Z,36.22
2023-02-16T10:27:52.304Z,32.38
2023-02-16T10:30:21.961Z,35.45
2023-02-16T10:33:28.721Z,30.98
2023-02-16T10:36:02.101Z,25.45
2023-02-16T10:38:59.354Z,20.88
2023-02-16T10:41:33.553Z,25.27
2023-02-16T10:44:12.881Z,29.73
2023-02-16T10:46:47.002Z,31.88
2023-02-16T10:49:15.748Z,27.15
2023-02-16T10:51:49.020Z,29.83
2023-02-16T10:54:28.805Z,24.08
2023-02-16T10:57:01.781Z,28.95
2023-02-16T10:59:38.533Z,23.33
2023-02-16T11:02:28.418Z,31.52
2023-02-16T11:04:57.569Z,25.60
2023-02-16T11:07:27.363Z,32.42
2023-02-16T11:09:57.612Z,26.95
2023-02-16T11:12:34.655Z,31.35
2023-02-16T11:15:22.445Z,31.98
2023-02-16T11:17:55.545Z,27.63
2023-02-16T11:20:33.286Z,30.83
2023-02-16T11:23:23.322Z,29.30
2023-02-16T11:26:04.605Z,32.20
2023-02-16T11:28:34.613Z,33.10
2023-02-16T11:31:24.680Z,29.13
2023-02-16T11:34:32.948Z,34.20
2023-02-16T11:37:07.790Z,32.60
2023-02-16T11:39:38.157Z,28.48
2023-02-16T11:42:19.120Z,29.92
2023-02-16T11:44:52.531Z,32.88
2023-02-16T11:47:24.970Z,40.08
2023-02-16T11:52:39.379Z,30.67
2023-02-16T11:55:18.969Z,27.85
2023-02-16T11:57:47.928Z,26.40
2023-02-16T12:00:22.507Z,23.95
2023-02-16T12:03:06.995Z,26.83
2023-02-16T12:05:39.658Z,25.40
2023-02-16T12:11:15.290Z,23.85
2023-02-16T12:13:59.573Z,28.65
2023-02-16T12:16:54.185Z,33.85
2023-02-16T12:19:28.818Z,25.27
2023-02-16T12:22:22.314Z,28.85
2023-02-16T12:24:54.073Z,29.67
2023-02-16T12:27:43.023Z,29.10
2023-02-16T12:30:24.847Z,27.60
2023-02-16T12:33:34.209Z,25.35
2023-02-16T12:36:24.610Z,29.63
2023-02-16T12:39:01.422Z,27.58
2023-02-16T12:41:56.874Z,32.83
2023-02-16T12:44:49.356Z,25.73
2023-02-16T12:47:25.420Z,27.25
2023-02-16T12:49:59.606Z,24.98
2023-02-16T12:52:41.573Z,21.55
2023-02-16T12:55:30.356Z,29.02
2023-02-16T12:58:16.758Z,29.13
2023-02-16T13:01:00.492Z,26.33
2023-02-16T13:03:39.831Z,29.75
2023-02-16T13:06:45.284Z,26.60
2023-02-16T13:09:38.359Z,26.98
2023-02-16T13:12:38.653Z,28.27
2023-02-16T13:15:28.454Z,29.05
2023-02-16T13:17:58.936Z,26.30
2023-02-16T13:20:26.888Z,26.98
2023-02-16T13:22:57.667Z,28.05
2023-02-16T13:25:43.725Z,28.33
2023-02-16T13:28:44.412Z,30.15
2023-02-16T13:31:50.257Z,29.10
2023-02-16T13:34:29.598Z,31.67
2023-02-16T13:37:19.308Z,35.97
2023-02-16T13:40:10.677Z,44.63
2023-02-16T13:42:57.880Z,51.08
2023-02-16T13:45:31.478Z,45.78
2023-02-16T13:47:59.479Z,46.85
2023-02-16T13:50:33.626Z,49.58
2023-02-16T13:53:19.557Z,60.88
2023-02-16T13:55:48.454Z,59.60
2023-02-16T13:58:19.196Z,55.10
2023-02-16T14:00:48.612Z,57.20
2023-02-16T14:03:21.574Z,42.28
2023-02-16T14:05:53.812Z,48.17
2023-02-16T14:08:28.918Z,41.22
2023-02-16T14:11:05.979Z,48.47
2023-02-16T14:13:39.732Z,44.08
2023-02-16T14:16:23.193Z,39.95
2023-02-16T14:19:17.251Z,41.28
2023-02-16T14:21:49.523Z,45.90
2023-02-16T14:24:26.483Z,72.88
2023-02-16T14:26:57.104Z,75.20
2023-02-16T14:29:31.961Z,86.07
2023-02-16T14:32:08.098Z,118.13
2023-02-16T14:34:41.909Z,111.53
2023-02-16T14:37:16.916Z,109.97
2023-02-16T14:40:06.443Z,122.75
2023-02-16T14:42:35.422Z,119.50
2023-02-16T14:45:06.370Z,138.55
2023-02-16T14:47:43.282Z,149.27
2023-02-16T14:50:42.336Z,148.27
2023-02-16T14:53:42.678Z,178.73
2023-02-16T14:56:50.813Z,178.73
2023-02-16T15:00:05.663Z,199.43
2023-02-16T15:02:39.616Z,221.73
2023-02-16T15:05:23.482Z,338.73
2023-02-16T15:08:24.720Z,249.00
2023-02-16T15:10:55.742Z,239.55
2023-02-16T15:13:32.047Z,196.45
2023-02-16T15:16:02.665Z,260.67
2023-02-16T15:18:39.875Z,251.90
2023-02-16T15:21:08.190Z,275.20
2023-02-16T15:23:37.315Z,276.58
2023-02-16T15:26:17.489Z,255.20
2023-02-16T15:28:51.248Z,258.00
2023-02-16T15:31:19.465Z,245.82
2023-02-16T15:33:56.446Z,223.57
2023-02-16T15:36:35.812Z,227.73
2023-02-16T15:39:14.887Z,223.15
2023-02-16T15:41:48.009Z,196.55
2023-02-16T15:44:35.575Z,181.75
2023-02-16T15:47:26.828Z,186.65
2023-02-16T15:49:55.448Z,207.45
2023-02-16T15:52:36.291Z,188.73
2023-02-16T15:55:06.785Z,209.45
2023-02-16T15:57:39.265Z,215.63
2023-02-16T16:00:23.954Z,212.63
2023-02-16T16:02:56.451Z,152.80
2023-02-16T16:05:41.202Z,162.73
2023-02-16T16:08:13.529Z,153.85
2023-02-16T16:10:42.569Z,131.90
2023-02-16T16:13:14.078Z,124.53
2023-02-16T16:15:44.591Z,84.90
2023-02-16T16:18:43.737Z,121.32
2023-02-16T16:21:38.125Z,121.13
2023-02-16T16:24:08.045Z,101.40
2023-02-16T16:26:53.204Z,108.70
2023-02-16T16:29:30.867Z,118.95
2023-02-16T16:31:58.840Z,115.20
2023-02-16T16:34:39.387Z,92.22
2023-02-16T16:37:19.357Z,63.92
2023-02-16T16:39:56.936Z,102.65
2023-02-16T16:42:25.238Z,68.55
2023-02-16T16:44:59.029Z,79.78
2023-02-16T16:47:34.337Z,96.65
2023-02-16T16:50:15.525Z,78.13
2023-02-16T16:52:46.628Z,106.18
2023-02-16T16:55:23.852Z,108.57
2023-02-16T16:57:54.008Z,116.68
2023-02-16T17:00:22.932Z,116.68
2023-02-16T17:02:50.915Z,112.05
2023-02-16T17:05:19.604Z,81.22
2023-02-16T17:07:50.837Z,70.00
2023-02-16T17:10:20.239Z,90.45
2023-02-16T17:12:49.984Z,104.18
2023-02-16T17:15:45.806Z,103.00
2023-02-16T17:18:18.236Z,101.18
2023-02-16T17:20:46.205Z,81.05
2023-02-16T17:23:17.967Z,41.72
2023-02-16T17:25:46.188Z,67.72
2023-02-16T17:28:14.446Z,73.90
2023-02-16T17:30:42.810Z,62.28
2023-02-16T17:33:10.917Z,86.80
2023-02-16T17:35:40.744Z,71.50
2023-02-16T17:38:20.063Z,67.35
2023-02-16T17:40:51.060Z,29.73
2023-02-16T17:43:19.304Z,57.23
2023-02-16T17:45:47.660Z,50.20
2023-02-16T17:48:28.298Z,55.20
2023-02-16T17:51:03.513Z,39.35
2023-02-16T17:53:32.085Z,61.28
2023-02-16T17:56:03.834Z,59.63
2023-02-16T17:58:32.178Z,86.22
2023-02-16T18:01:00.234Z,95.10
2023-02-16T18:03:28.241Z,98.53
2023-02-16T18:05:57.716Z,105.65
2023-02-16T18:08:25.914Z,93.10
2023-02-16T18:10:54.839Z,112.97
2023-02-16T18:13:22.739Z,106.25
2023-02-16T18:15:54.463Z,120.05
2023-02-16T18:18:23.035Z,102.95
2023-02-16T18:20:50.894Z,112.30
2023-02-16T18:23:18.982Z,115.00
2023-02-16T18:25:46.678Z,102.85
2023-02-16T18:28:21.632Z,59.20
2023-02-16T18:30:50.858Z,90.40
2023-02-16T18:33:21.666Z,98.53
2023-02-16T18:35:54.291Z,96.20
2023-02-16T18:38:22.668Z,105.15
2023-02-16T18:40:51.036Z,104.32
2023-02-16T18:43:19.750Z,108.63
2023-02-16T18:45:48.987Z,95.07
2023-02-16T18:48:16.779Z,94.10
2023-02-16T18:50:45.122Z,93.18
2023-02-16T18:53:13.958Z,84.40
2023-02-16T18:55:42.334Z,60.72
2023-02-16T18:58:11.533Z,75.78
2023-02-16T19:00:39.568Z,86.63
2023-02-16T19:03:07.827Z,62.53
2023-02-16T19:05:35.494Z,93.97
2023-02-16T19:08:03.364Z,107.47
2023-02-16T19:10:31.538Z,82.43
2023-02-16T19:13:01.316Z,72.10
2023-02-16T19:15:30.109Z,100.97
2023-02-16T19:17:57.836Z,71.65
2023-02-16T19:20:26.155Z,54.40
2023-02-16T19:22:54.732Z,98.43
2023-02-16T19:25:22.702Z,85.38
2023-02-16T19:27:50.758Z,89.20
2023-02-16T19:30:21.360Z,93.10
2023-02-16T19:32:49.511Z,92.13
2023-02-16T19:35:18.273Z,85.07
2023-02-16T19:37:46.030Z,65.07
2023-02-16T19:40:14.656Z,85.60
2023-02-16T19:42:42.474Z,95.93
2023-02-16T19:45:10.317Z,82.05
2023-02-16T19:47:38.357Z,79.78
2023-02-16T19:50:06.998Z,87.35
2023-02-16T19:52:34.738Z,97.60
2023-02-16T19:55:03.206Z,90.75
2023-02-16T19:57:31.077Z,93.47
2023-02-16T19:59:58.857Z,88.75
2023-02-16T20:02:26.701Z,86.80
2023-02-16T20:04:55.338Z,91.72
2023-02-16T20:07:23.324Z,91.72
2023-02-16T20:09:51.134Z,81.97
2023-02-16T20:12:18.839Z,83.10
2023-02-16T20:14:46.800Z,75.88
2023-02-16T20:17:14.488Z,81.65
2023-02-16T20:19:42.386Z,85.03
2023-02-16T20:22:10.363Z,84.82
2023-02-16T20:24:39.448Z,79.03
2023-02-16T20:27:07.198Z,84.07
2023-02-16T20:29:35.190Z,80.15
2023-02-16T20:32:03.702Z,73.63
2023-02-16T20:34:31.608Z,70.15
2023-02-16T20:36:59.609Z,85.20
2023-02-16T20:39:27.720Z,63.95
2023-02-16T20:41:55.519Z,78.05
2023-02-16T20:44:23.632Z,67.75
2023-02-16T20:46:51.584Z,80.40
2023-02-16T20:49:19.395Z,84.82
2023-02-16T20:51:47.316Z,75.28
2023-02-16T20:54:15.487Z,75.15
2023-02-16T20:56:43.505Z,73.00
2023-02-16T20:59:11.716Z,53.65
2023-02-16T21:01:44.014Z,61.83
2023-02-16T21:04:12.068Z,82.22
2023-02-16T21:06:39.931Z,80.80
2023-02-16T21:09:08.881Z,81.10
2023-02-16T21:11:37.928Z,75.55
2023-02-16T21:14:06.355Z,75.97
2023-02-16T21:16:34.879Z,56.15
2023-02-16T21:19:07.238Z,71.18
2023-02-16T21:21:41.569Z,68.45
2023-02-16T21:24:10.023Z,48.58
2023-02-16T21:26:37.806Z,66.30
2023-02-16T21:29:05.948Z,89.10
2023-02-16T21:31:33.812Z,78.40
2023-02-16T21:34:01.935Z,65.80
2023-02-16T21:36:30.047Z,35.60
2023-02-16T21:38:58.201Z,35.15
2023-02-16T21:41:29.293Z,76.82
2023-02-16T21:44:02.026Z,40.95
2023-02-16T21:46:34.580Z,47.10
2023-02-16T21:49:03.030Z,37.20
2023-02-16T21:51:32.444Z,61.03
2023-02-16T21:54:00.359Z,28.63
2023-02-16T21:56:49.176Z,72.05
2023-02-16T21:59:22.989Z,75.68
2023-02-16T22:01:51.755Z,80.50
2023-02-16T22:04:21.529Z,67.00
2023-02-16T22:06:50.163Z,54.47
2023-02-16T22:09:19.516Z,75.00
2023-02-16T22:11:47.733Z,65.68
2023-02-16T22:14:15.803Z,67.40
2023-02-16T22:16:44.831Z,50.17
2023-02-16T22:19:13.773Z,66.25
2023-02-16T22:21:43.183Z,63.45
2023-02-16T22:24:15.124Z,59.20
2023-02-16T22:26:43.577Z,57.40
2023-02-16T22:29:11.352Z,55.83
2023-02-16T22:31:39.742Z,54.42
2023-02-16T22:34:08.608Z,40.95
2023-02-16T22:36:36.854Z,55.08
2023-02-16T22:39:05.209Z,36.20
2023-02-16T22:41:33.565Z,68.30
2023-02-16T22:44:01.555Z,57.30
2023-02-16T22:46:29.887Z,46.90
2023-02-16T22:49:02.280Z,70.18
2023-02-16T22:51:30.993Z,39.83
2023-02-16T22:53:59.965Z,53.20
2023-02-16T22:56:28.237Z,61.92
2023-02-16T22:58:57.637Z,63.83
2023-02-16T23:01:26.594Z,38.20
2023-02-16T23:03:59.502Z,40.17
2023-02-16T23:06:29.220Z,46.75
2023-02-16T23:08:59.003Z,57.60
2023-02-16T23:11:27.330Z,62.08
2023-02-16T23:13:55.382Z,62.85
2023-02-16T23:16:24.833Z,64.53
2023-02-16T23:18:53.281Z,51.03
2023-02-16T23:21:28.492Z,61.20
2023-02-16T23:23:57.229Z,56.13
2023-02-16T23:26:26.056Z,66.28
2023-02-16T23:28:55.352Z,65.38
2023-02-16T23:31:23.868Z,43.05
2023-02-16T23:33:52.006Z,67.90
2023-02-16T23:36:20.121Z,63.67
2023-02-16T23:38:48.128Z,53.83
2023-02-16T23:41:16.788Z,52.88
2023-02-16T23:43:44.923Z,47.92
2023-02-16T23:46:13.137Z,65.22
2023-02-16T23:48:41.117Z,60.17
2023-02-16T23:51:11.109Z,59.03
2023-02-16T23:53:39.786Z,44.08
2023-02-16T23:56:08.388Z,52.63
2023-02-16T23:58:43.362Z,58.97
